createdAt,value
2022-08-02T00:02:20.971Z,18.40
2022-08-02T00:07:17.905Z,18.24
2022-08-02T00:12:18.087Z,18.54
2022-08-02T00:17:17.739Z,18.58
2022-08-02T00:22:20.180Z,18.33
2022-08-02T00:27:17.585Z,18.24
2022-08-02T00:32:17.757Z,18.42
2022-08-02T00:37:17.474Z,18.18
2022-08-02T00:42:17.432Z,18.17
2022-08-02T00:47:19.403Z,18.42
2022-08-02T00:52:17.325Z,18.37
2022-08-02T00:57:17.229Z,18.17
2022-08-02T01:02:20.281Z,18.02
2022-08-02T01:07:17.238Z,17.91
2022-08-02T01:12:17.433Z,17.73
2022-08-02T01:17:16.916Z,17.38
2022-08-02T01:22:17.054Z,17.07
2022-08-02T01:27:16.834Z,17.08
2022-08-02T01:32:18.255Z,17.08
2022-08-02T01:37:17.028Z,16.93
2022-08-02T01:42:16.623Z,16.73
2022-08-02T01:47:16.769Z,16.53
2022-08-02T01:52:16.667Z,16.44
2022-08-02T01:57:16.428Z,16.62
2022-08-02T02:02:19.365Z,16.34
2022-08-02T02:07:16.255Z,16.03
2022-08-02T02:12:16.566Z,16.23
2022-08-02T02:17:52.679Z,16.20
2022-08-02T03:02:18.511Z,15.92
2022-08-02T03:07:17.573Z,15.84
2022-08-02T03:12:20.061Z,15.79
2022-08-02T03:17:17.536Z,15.92
2022-08-02T03:22:17.266Z,16.03
2022-08-02T03:27:17.428Z,16.03
2022-08-02T03:32:17.130Z,16.15
2022-08-02T03:37:17.007Z,16.09
2022-08-02T03:42:17.258Z,16.22
2022-08-02T03:47:16.887Z,16.27
2022-08-02T03:52:20.098Z,16.26
2022-08-02T03:57:16.777Z,16.26
2022-08-02T04:02:16.733Z,15.96
2022-08-02T04:08:05.932Z,15.86
2022-08-02T04:12:19.751Z,15.79
2022-08-02T04:17:16.588Z,15.81
2022-08-02T04:22:16.455Z,16.22
2022-08-02T04:27:48.914Z,17.04
2022-08-02T04:32:17.416Z,18.21
2022-08-02T04:37:16.446Z,18.97
2022-08-02T04:42:16.194Z,20.08
2022-08-02T04:47:16.153Z,20.08
2022-08-02T04:52:19.130Z,20.02
2022-08-02T04:57:15.984Z,21.44
2022-08-02T05:02:16.215Z,21.94
2022-08-02T05:07:15.811Z,21.99
2022-08-02T05:12:15.819Z,20.90
2022-08-02T05:17:15.697Z,20.61
2022-08-02T05:22:17.236Z,20.58
2022-08-02T05:36:42.108Z,20.65
2022-08-02T05:41:39.707Z,20.42
2022-08-02T05:46:39.810Z,20.59
2022-08-02T05:51:39.672Z,20.71
2022-08-02T05:56:39.584Z,20.90
2022-08-02T06:01:39.541Z,22.75
2022-08-02T06:06:39.467Z,22.06
2022-08-02T06:11:39.392Z,21.79
2022-08-02T06:16:42.479Z,21.95
2022-08-02T06:22:34.142Z,21.72
2022-08-02T06:26:43.649Z,23.02
2022-08-02T06:31:39.127Z,23.97
2022-08-02T06:36:39.202Z,24.35
2022-08-02T06:41:38.951Z,24.85
2022-08-02T06:47:10.342Z,24.71
2022-08-02T06:51:39.931Z,25.72
2022-08-02T06:56:38.756Z,26.06
2022-08-02T07:01:39.429Z,27.01
2022-08-02T07:06:38.791Z,26.69
2022-08-02T07:11:39.079Z,27.17
2022-08-02T07:16:38.521Z,26.77
2022-08-02T07:21:59.247Z,26.61
2022-08-02T07:27:08.693Z,25.64
2022-08-02T07:31:39.489Z,25.83
2022-08-02T07:36:47.699Z,26.94
2022-08-02T07:41:45.691Z,26.62
2022-08-02T07:46:45.965Z,25.90
2022-08-02T07:51:38.156Z,24.91
2022-08-02T07:56:38.066Z,26.32
2022-08-02T08:12:13.414Z,25.65
2022-08-02T08:17:12.770Z,26.04
2022-08-02T08:22:13.226Z,25.57
2022-08-02T08:27:12.718Z,25.91
2022-08-02T08:32:17.943Z,26.43
2022-08-02T08:37:16.915Z,26.47
2022-08-02T08:42:12.947Z,25.80
2022-08-02T08:47:12.753Z,25.35
2022-08-02T08:52:12.617Z,25.28
2022-08-02T08:57:13.718Z,25.05
2022-08-02T09:02:17.184Z,25.07
2022-08-02T09:07:13.262Z,25.01
2022-08-02T09:12:12.594Z,24.90
2022-08-02T09:17:12.030Z,25.09
2022-08-02T09:22:12.351Z,24.85
2022-08-02T09:27:11.971Z,24.57
2022-08-02T09:32:12.501Z,24.08
2022-08-02T09:37:11.750Z,24.53
2022-08-02T09:42:13.781Z,24.85
2022-08-02T09:47:11.735Z,25.39
2022-08-02T09:52:12.280Z,25.75
2022-08-02T09:57:11.521Z,25.90
2022-08-02T10:02:17.499Z,26.01
2022-08-02T10:07:12.436Z,26.25
2022-08-02T10:12:11.672Z,26.43
2022-08-02T10:17:11.246Z,25.28
2022-08-02T10:22:11.620Z,25.94
2022-08-02T10:27:11.174Z,26.44
2022-08-02T10:32:11.452Z,26.64
2022-08-02T10:37:11.043Z,26.77
2022-08-02T10:42:11.591Z,26.73
2022-08-02T10:47:10.843Z,26.81
2022-08-02T10:52:12.649Z,26.87
2022-08-02T10:57:15.028Z,27.29
2022-08-02T11:02:14.161Z,27.26
2022-08-02T11:07:10.696Z,27.43
2022-08-02T11:12:11.082Z,27.71
2022-08-02T11:17:10.557Z,27.85
2022-08-02T11:22:10.682Z,27.95
2022-08-02T11:27:10.468Z,28.43
2022-08-02T11:32:11.128Z,28.93
2022-08-02T11:37:10.178Z,28.72
2022-08-02T11:42:10.662Z,28.65
2022-08-02T11:59:01.637Z,28.35
2022-08-02T12:03:55.414Z,28.44
2022-08-02T12:08:55.835Z,28.32
2022-08-02T12:13:57.077Z,28.51
2022-08-02T12:18:55.307Z,28.53
2022-08-02T12:24:00.132Z,28.80
2022-08-02T12:28:56.562Z,29.49
2022-08-02T12:33:55.126Z,29.37
2022-08-02T12:38:55.039Z,29.56
2022-08-02T12:43:55.218Z,29.70
2022-08-02T12:49:16.657Z,29.68
2022-08-02T12:53:59.100Z,29.18
2022-08-02T12:58:55.139Z,29.26
2022-08-02T13:04:07.630Z,29.47
2022-08-02T13:08:57.343Z,29.45
2022-08-02T13:13:54.628Z,29.15
2022-08-02T13:18:54.724Z,29.38
2022-08-02T13:23:55.260Z,29.49
2022-08-02T13:28:54.367Z,29.71
2022-08-02T13:33:54.279Z,29.82
2022-08-02T13:38:54.389Z,29.77
2022-08-02T13:43:59.475Z,30.05
2022-08-02T13:48:58.499Z,30.02
2022-08-02T13:53:54.067Z,29.66
2022-08-02T13:58:54.059Z,29.99
2022-08-02T14:04:07.708Z,30.37
2022-08-02T14:08:54.864Z,30.59
2022-08-02T14:13:53.748Z,30.23
2022-08-02T14:18:54.927Z,30.14
2022-08-02T14:23:53.689Z,30.68
2022-08-02T14:28:53.676Z,31.80
2022-08-02T14:34:01.484Z,31.43
2022-08-02T14:39:00.933Z,32.24
2022-08-02T14:44:01.533Z,33.07
2022-08-02T14:48:56.451Z,33.55
2022-08-02T14:54:03.069Z,32.73
2022-08-02T14:58:54.240Z,33.20
